Time;durP1;ratioP1;P1;durP2;ratioP2;P2;SDS_P1;SDS_P2;PMS_P1;PMS_P2;Temp;Humidity;BMP_temperature;BMP_pressure;BME280_temperature;BME280_humidity;BME280_pressure;Samples;Min_cycle;Max_cycle;Signal;HPM_P1;HPM_P2
2022/04/24 00:00:56;;;;;;;30.23;24.77;;;;;;;3.16;74.29;98037.94;2175552;82;21064;-83
2022/04/24 00:03:56;;;;;;;29.73;23.60;;;;;;;3.13;74.49;98037.84;2175476;82;20952;-84
2022/04/24 00:06:57;;;;;;;30.80;23.63;;;;;;;3.08;73.99;98036.84;2175691;82;21009;-84
2022/04/24 00:09:57;;;;;;;30.27;24.97;;;;;;;2.98;73.67;98032.67;2175152;82;20945;-83
2022/04/24 00:12:57;;;;;;;30.80;24.60;;;;;;;2.86;73.94;98026.34;2175607;82;20960;-83
2022/04/24 00:15:58;;;;;;;32.40;25.10;;;;;;;2.81;74.23;98031.78;2175455;82;21379;-83
2022/04/24 00:18:58;;;;;;;35.37;25.23;;;;;;;2.79;74.58;98032.56;2175562;82;20983;-83
2022/04/24 00:21:59;;;;;;;29.97;24.37;;;;;;;2.76;74.47;98029.89;2175299;82;20948;-83
2022/04/24 00:24:59;;;;;;;33.93;24.43;;;;;;;2.74;74.56;98019.95;2175512;82;21272;-83
2022/04/24 00:28:01;;;;;;;31.10;24.27;;;;;;;2.71;74.24;98014.30;2175506;82;20961;-83
2022/04/24 00:31:04;;;;;;;29.40;24.57;;;;;;;2.68;74.37;98012.92;2175225;82;21024;-84
2022/04/24 00:34:02;;;;;;;33.30;24.37;;;;;;;2.67;74.63;98007.31;2146681;82;20929;-83
2022/04/24 00:37:03;;;;;;;31.10;23.83;;;;;;;2.66;74.63;98005.97;2175589;82;20921;-84
2022/04/24 00:40:03;;;;;;;28.43;23.70;;;;;;;2.62;73.46;98001.56;2175544;82;20976;-83
2022/04/24 00:43:03;;;;;;;29.60;23.43;;;;;;;2.53;74.01;97999.55;2175279;82;20932;-85
2022/04/24 00:46:04;;;;;;;30.13;22.87;;;;;;;2.48;74.30;98001.12;2175775;82;20881;-85
2022/04/24 00:49:04;;;;;;;29.47;22.40;;;;;;;2.48;74.68;97999.41;2175745;82;21340;-87
2022/04/24 00:52:04;;;;;;;27.57;22.83;;;;;;;2.48;74.68;97999.41;2175879;82;20917;-86
2022/04/24 00:55:05;;;;;;;27.90;22.57;;;;;;;2.49;74.51;98006.31;2176077;82;20944;-84
2022/04/24 00:58:05;;;;;;;29.47;23.53;;;;;;;2.43;74.23;98006.55;2175672;82;21369;-83
2022/04/24 01:01:06;;;;;;;38.67;23.03;;;;;;;2.38;73.93;98003.83;2175845;82;21036;-84
2022/04/24 01:04:06;;;;;;;35.17;23.50;;;;;;;2.31;74.07;97998.03;2175823;82;20960;-85
2022/04/24 01:07:06;;;;;;;30.03;22.97;;;;;;;2.26;74.13;97997.44;2175733;82;20913;-83
2022/04/24 01:10:07;;;;;;;30.07;23.33;;;;;;;2.22;74.31;97995.18;2175913;82;20921;-84
2022/04/24 01:13:07;;;;;;;28.80;21.53;;;;;;;2.20;73.97;97999.41;2175552;82;20928;-86
2022/04/24 01:16:08;;;;;;;28.63;22.67;;;;;;;2.16;73.91;98000.14;2176276;82;21333;-86
2022/04/24 01:19:08;;;;;;;30.13;23.93;;;;;;;2.13;74.42;97993.61;2182721;82;20918;-86
2022/04/24 01:22:08;;;;;;;31.03;23.97;;;;;;;2.07;74.34;97992.12;2182525;81;20928;-86
2022/04/24 01:25:09;;;;;;;29.90;23.20;;;;;;;2.04;74.61;97989.46;2182537;81;20951;-86
2022/04/24 01:28:09;;;;;;;31.40;23.33;;;;;;;2.05;74.82;97988.63;2182676;82;20924;-86
2022/04/24 01:31:10;;;;;;;31.30;22.67;;;;;;;2.06;74.87;97996.81;2182321;82;21039;-86
2022/04/24 01:34:10;;;;;;;32.70;23.23;;;;;;;2.03;74.59;97996.72;2182489;81;20932;-86
2022/04/24 01:37:11;;;;;;;31.00;23.10;;;;;;;1.96;74.34;97990.50;2182477;81;20970;-85
2022/04/24 01:40:11;;;;;;;27.00;21.93;;;;;;;1.91;74.20;97991.64;2182663;81;20924;-85
2022/04/24 01:43:11;;;;;;;33.90;23.50;;;;;;;1.90;74.51;97987.73;2182304;82;20976;-87
2022/04/24 01:46:12;;;;;;;29.50;23.77;;;;;;;1.88;74.89;97987.69;2182268;82;20897;-86
2022/04/24 01:49:13;;;;;;;30.10;23.20;;;;;;;1.93;75.09;97986.96;2183148;82;20904;-84
2022/04/24 01:52:13;;;;;;;31.23;23.13;;;;;;;1.96;74.55;97977.64;2183070;81;21108;-83
2022/04/24 01:55:13;;;;;;;32.47;23.20;;;;;;;1.88;74.52;97977.39;2183006;81;20955;-86
2022/04/24 01:58:13;;;;;;;33.03;23.10;;;;;;;1.84;74.62;97977.25;2182922;82;20956;-87
2022/04/24 02:01:14;;;;;;;32.47;23.00;;;;;;;1.81;74.52;97981.88;2182801;81;21043;-86
2022/04/24 02:04:14;;;;;;;32.57;24.23;;;;;;;1.80;74.39;97980.13;2182890;82;20959;-86
2022/04/24 02:07:15;;;;;;;32.27;24.13;;;;;;;1.73;74.33;97986.28;2182927;81;20921;-86
2022/04/24 02:10:18;;;;;;;29.80;23.47;;;;;;;1.66;74.39;97977.49;2183107;81;20995;-87
2022/04/24 02:13:18;;;;;;;33.30;23.77;;;;;;;1.61;74.36;97980.33;2182968;81;20955;-86
2022/04/24 02:16:19;;;;;;;33.73;23.20;;;;;;;1.56;74.79;97972.87;2181473;82;20928;-85
2022/04/24 02:19:21;;;;;;;31.27;23.57;;;;;;;1.52;74.53;97976.17;2166160;82;20905;-84
2022/04/24 02:22:22;;;;;;;31.33;23.67;;;;;;;1.48;74.34;97976.89;2166188;82;20975;-84
2022/04/24 02:25:25;;;;;;;32.23;23.40;;;;;;;1.46;74.58;97975.97;2166345;82;21119;-84
2022/04/24 02:28:25;;;;;;;36.73;23.83;;;;;;;1.44;74.37;97978.48;2165936;82;20921;-86
2022/04/24 02:31:26;;;;;;;41.17;23.43;;;;;;;1.43;74.59;97973.29;2165824;82;21015;-84
2022/04/24 02:34:28;;;;;;;31.20;22.87;;;;;;;1.40;74.46;97973.19;2166208;82;21317;-84
2022/04/24 02:37:31;;;;;;;37.50;23.23;;;;;;;1.38;74.39;97973.55;2166008;82;20964;-83
2022/04/24 02:40:29;;;;;;;31.80;23.37;;;;;;;1.33;74.23;97968.66;2166065;82;20996;-84
2022/04/24 02:43:29;;;;;;;29.47;22.63;;;;;;;1.31;74.35;97969.02;2165750;82;20953;-83
2022/04/24 02:46:30;;;;;;;31.10;23.70;;;;;;;1.26;74.51;97968.45;2165530;82;20932;-85
2022/04/24 02:49:30;;;;;;;34.53;24.40;;;;;;;1.27;74.59;97962.48;2166021;82;20925;-85
2022/04/24 02:52:30;;;;;;;33.90;24.40;;;;;;;1.28;74.70;97962.95;2166052;82;21361;-84
2022/04/24 02:55:31;;;;;;;32.70;24.63;;;;;;;1.30;74.99;97954.00;2166058;82;20917;-84
2022/04/24 02:58:31;;;;;;;36.70;25.10;;;;;;;1.38;75.00;97957.70;2166134;82;20952;-83
2022/04/24 03:01:33;;;;;;;43.07;28.17;;;;;;;1.39;74.70;97949.58;2165788;82;20988;-83
2022/04/24 03:04:33;;;;;;;45.63;28.40;;;;;;;1.40;74.67;97948.34;2165787;82;20961;-83
2022/04/24 03:07:32;;;;;;;43.13;28.53;;;;;;;1.38;74.54;97945.27;2165669;82;20929;-84
2022/04/24 03:10:33;;;;;;;44.77;30.53;;;;;;;1.38;74.58;97942.69;2165666;82;21316;-83
2022/04/24 03:13:35;;;;;;;42.40;27.90;;;;;;;1.37;74.74;97937.09;2165293;82;20980;-83
2022/04/24 03:16:36;;;;;;;35.27;25.03;;;;;;;1.35;74.15;97935.75;2166440;82;20945;-84
2022/04/24 03:19:36;;;;;;;34.07;24.77;;;;;;;1.24;74.12;97933.23;2175574;82;21404;-84
2022/04/24 03:22:37;;;;;;;33.27;25.40;;;;;;;1.20;74.59;97933.95;2175469;82;20956;-84
2022/04/24 03:25:37;;;;;;;33.37;24.43;;;;;;;1.21;74.77;97935.29;2175588;82;20917;-83
2022/04/24 03:28:37;;;;;;;33.43;23.93;;;;;;;1.18;74.51;97926.19;2175472;82;21377;-84
2022/04/24 03:31:38;;;;;;;34.10;22.63;;;;;;;1.11;74.15;97941.35;2175514;81;21035;-84
2022/04/24 03:34:38;;;;;;;32.67;23.17;;;;;;;1.07;73.83;97935.23;2175671;82;20917;-83
2022/04/24 03:37:38;;;;;;;31.70;23.17;;;;;;;1.10;73.70;97936.63;2175313;82;21337;-85
2022/04/24 03:40:39;;;;;;;37.03;23.77;;;;;;;1.07;73.83;97933.95;2175452;82;20961;-85
2022/04/24 03:43:39;;;;;;;32.53;23.97;;;;;;;1.04;74.22;97929.11;2175448;82;20921;-85
2022/04/24 03:46:40;;;;;;;32.83;23.77;;;;;;;1.05;74.07;97924.44;2175129;82;21309;-85
2022/04/24 03:49:40;;;;;;;33.83;24.57;;;;;;;1.06;74.27;97928.34;2175438;82;20945;-85
2022/04/24 03:52:40;;;;;;;35.10;25.00;;;;;;;1.12;74.45;97927.68;2175590;82;20925;-86
2022/04/24 03:55:41;;;;;;;32.20;24.47;;;;;;;1.17;74.38;97931.28;2175655;82;20957;-85
2022/04/24 03:58:41;;;;;;;38.87;25.77;;;;;;;1.21;74.30;97928.86;2175738;82;20980;-85
2022/04/24 04:01:42;;;;;;;35.43;24.20;;;;;;;1.30;74.61;97929.99;2175594;82;20956;-85
2022/04/24 04:04:42;;;;;;;34.77;26.17;;;;;;;1.35;74.36;97933.18;2175780;82;20897;-85
2022/04/24 04:07:42;;;;;;;36.50;25.83;;;;;;;1.36;74.14;97935.34;2175673;82;20928;-85
2022/04/24 04:10:45;;;;;;;35.47;24.90;;;;;;;1.42;74.21;97934.25;2175826;82;20943;-85
2022/04/24 04:13:46;;;;;;;35.63;24.07;;;;;;;1.51;74.31;97935.84;2176034;82;21000;-85
2022/04/24 04:16:46;;;;;;;31.57;24.07;;;;;;;1.62;74.32;97939.63;2174992;82;20865;-85
2022/04/24 04:19:47;;;;;;;32.87;23.93;;;;;;;1.73;74.32;97940.85;2165754;82;21094;-85
2022/04/24 04:22:48;;;;;;;37.73;26.37;;;;;;;1.84;74.12;97938.23;2166058;82;20901;-86
2022/04/24 04:25:47;;;;;;;33.93;24.73;;;;;;;1.94;74.11;97933.38;2166036;82;20968;-85
2022/04/24 04:28:48;;;;;;;32.53;23.70;;;;;;;2.07;73.92;97932.92;2166219;82;20962;-85
2022/04/24 04:31:48;;;;;;;33.80;24.93;;;;;;;2.18;74.12;97944.42;2165907;82;21392;-83
2022/04/24 04:34:49;;;;;;;38.50;25.10;;;;;;;2.40;74.69;97946.80;2165860;82;20913;-82
2022/04/24 04:37:49;;;;;;;35.53;26.20;;;;;;;2.59;74.26;97949.50;2165920;82;20965;-83
2022/04/24 04:40:49;;;;;;;33.90;24.50;;;;;;;2.77;74.48;97954.33;2165883;82;21309;-83
2022/04/24 04:43:50;;;;;;;34.63;26.63;;;;;;;3.00;74.41;97952.38;2165912;82;20968;-83
2022/04/24 04:46:50;;;;;;;37.97;26.63;;;;;;;3.13;73.83;97958.33;2166127;82;20953;-84
2022/04/24 04:49:51;;;;;;;37.47;26.73;;;;;;;3.32;73.92;97957.10;2165876;82;21303;-82
2022/04/24 04:52:51;;;;;;;35.97;26.03;;;;;;;3.50;73.83;97946.87;2165670;82;20913;-83
2022/04/24 04:55:52;;;;;;;32.73;25.13;;;;;;;3.66;73.58;97945.54;2165786;82;20968;-83
2022/04/24 04:58:55;;;;;;;34.13;24.73;;;;;;;3.86;73.37;97947.30;2166239;82;20928;-84
2022/04/24 05:01:55;;;;;;;35.33;25.93;;;;;;;4.04;73.59;97944.28;2165978;82;21324;-83
2022/04/24 05:04:56;;;;;;;39.00;28.57;;;;;;;4.28;73.62;97942.25;2165917;82;20937;-82
2022/04/24 05:07:56;;;;;;;35.13;26.23;;;;;;;4.47;73.36;97933.22;2165955;82;20925;-82
2022/04/24 05:10:57;;;;;;;32.40;26.03;;;;;;;4.65;72.86;97935.31;2165728;82;21309;-82
2022/04/24 05:13:57;;;;;;;33.37;25.53;;;;;;;4.84;72.77;97925.78;2165692;82;21281;-83
2022/04/24 05:16:57;;;;;;;38.40;27.27;;;;;;;5.09;72.98;97931.00;2166213;82;20964;-83
2022/04/24 05:19:58;;;;;;;39.70;28.43;;;;;;;5.36;72.67;97937.13;2175758;82;20960;-81
2022/04/24 05:22:58;;;;;;;36.80;27.50;;;;;;;5.63;72.43;97940.20;2175472;82;20973;-82
2022/04/24 05:25:58;;;;;;;38.67;28.00;;;;;;;6.13;72.54;97929.83;2175272;82;20932;-83
2022/04/24 05:28:59;;;;;;;40.80;28.97;;;;;;;6.50;72.47;97924.72;2175241;82;21333;-82
2022/04/24 05:31:59;;;;;;;33.53;26.80;;;;;;;6.85;72.02;97918.67;2175038;82;21028;-83
2022/04/24 05:35:00;;;;;;;39.43;28.90;;;;;;;7.15;72.06;97926.39;2174941;82;20972;-81
2022/04/24 05:38:00;;;;;;;40.93;30.67;;;;;;;7.51;72.48;97928.05;2175731;82;20917;-82
2022/04/24 05:41:01;;;;;;;37.10;28.53;;;;;;;7.90;72.15;97918.88;2175543;82;20952;-82
2022/04/24 05:44:01;;;;;;;42.00;30.73;;;;;;;8.27;72.00;97928.67;2175800;82;20932;-84
2022/04/24 05:47:01;;;;;;;35.53;28.70;;;;;;;8.57;70.52;97933.64;2175844;82;20972;-82
2022/04/24 05:50:02;;;;;;;44.27;30.27;;;;;;;8.83;69.60;97938.57;2175744;82;21097;-82
2022/04/24 05:53:02;;;;;;;36.13;29.03;;;;;;;8.99;69.08;97937.33;2175829;82;21289;-83
2022/04/24 05:56:03;;;;;;;36.27;29.50;;;;;;;9.21;68.88;97941.73;2175360;82;20956;-83
2022/04/24 05:59:03;;;;;;;38.17;27.83;;;;;;;9.49;68.65;97943.53;2175960;82;20928;-84
2022/04/24 06:02:03;;;;;;;42.10;32.50;;;;;;;9.79;68.07;97940.56;2175637;82;21006;-85
2022/04/24 06:05:07;;;;;;;47.37;33.60;;;;;;;10.13;67.49;97937.52;2175600;82;20933;-84
2022/04/24 06:08:07;;;;;;;41.40;31.07;;;;;;;10.44;66.58;97956.23;2175545;82;20917;-84
2022/04/24 06:11:07;;;;;;;40.90;30.77;;;;;;;10.77;65.49;97953.10;2175651;82;20940;-83
2022/04/24 06:14:08;;;;;;;35.07;26.97;;;;;;;10.95;64.64;97937.80;2175737;82;21320;-84
2022/04/24 06:17:08;;;;;;;35.83;25.40;;;;;;;11.07;62.76;97939.92;2175392;80;20964;-83
2022/04/24 06:20:09;;;;;;;26.48;20.52;;;;;;;11.39;63.84;97941.53;2165754;82;21174;-84
2022/04/24 06:23:09;;;;;;;29.20;21.17;;;;;;;11.68;62.64;97940.91;2165575;82;21368;-83
2022/04/24 06:26:12;;;;;;;26.42;20.68;;;;;;;11.93;62.39;97932.92;2165936;82;20957;-84
2022/04/24 06:29:12;;;;;;;26.23;20.40;;;;;;;12.03;61.61;97927.59;2166776;82;20948;-85
2022/04/24 06:32:13;;;;;;;25.62;20.45;;;;;;;12.32;60.82;97929.11;2166598;82;21419;-84
2022/04/24 06:35:14;;;;;;;22.10;17.07;;;;;;;12.42;60.44;97920.28;2166844;82;20894;-86
2022/04/24 06:38:13;;;;;;;23.62;17.85;;;;;;;12.38;59.51;97917.27;2166936;82;20978;-84
2022/04/24 06:41:14;;;;;;;19.48;15.95;;;;;;;12.40;58.81;97915.06;2166505;82;20936;-84
2022/04/24 06:44:14;;;;;;;19.20;16.35;;;;;;;12.41;58.19;97909.39;2166316;82;20913;-84
2022/04/24 06:47:15;;;;;;;21.73;16.05;;;;;;;12.54;59.22;97901.83;2166255;82;20960;-84
2022/04/24 06:50:15;;;;;;;20.35;16.10;;;;;;;12.80;58.90;97904.16;2166270;82;20965;-83
2022/04/24 06:53:18;;;;;;;27.80;22.02;;;;;;;13.07;58.42;97898.59;2165993;82;20946;-85
2022/04/24 06:56:16;;;;;;;22.52;16.48;;;;;;;13.35;57.88;97896.50;2165850;82;21371;-83
2022/04/24 06:59:16;;;;;;;17.12;14.25;;;;;;;13.53;56.61;97895.36;2166011;82;20928;-83
2022/04/24 07:02:17;;;;;;;16.97;14.75;;;;;;;13.71;56.50;97893.77;2166236;82;21012;-84
2022/04/24 07:05:17;;;;;;;18.98;15.53;;;;;;;13.93;56.39;97890.38;2165540;82;21389;-84
2022/04/24 07:08:17;;;;;;;22.20;17.62;;;;;;;14.19;55.07;97895.63;2166315;82;20905;-83
2022/04/24 07:11:18;;;;;;;19.48;17.35;;;;;;;14.29;54.50;97892.81;2167111;82;20961;-83
2022/04/24 07:14:18;;;;;;;23.55;17.12;;;;;;;14.31;54.89;97887.53;2166038;82;20972;-83
2022/04/24 07:17:19;;;;;;;22.27;17.77;;;;;;;14.34;54.96;97886.16;2165639;82;20965;-83
2022/04/24 07:20:19;;;;;;;20.88;18.67;;;;;;;14.30;54.58;97877.93;2175117;82;20952;-85
2022/04/24 07:23:22;;;;;;;43.03;31.97;;;;;;;14.18;54.39;97868.52;2176089;82;20936;-85
2022/04/24 07:26:23;;;;;;;30.17;24.37;;;;;;;14.08;54.75;97864.77;2175865;82;20936;-84
2022/04/24 07:29:25;;;;;;;30.88;24.67;;;;;;;14.09;54.20;97862.57;2176063;82;21230;-85
2022/04/24 07:32:25;;;;;;;33.58;25.62;;;;;;;14.33;54.52;97858.19;2146906;82;21364;-84
2022/04/24 07:35:26;;;;;;;31.75;24.65;;;;;;;14.68;53.77;97855.35;2175975;82;20960;-85
2022/04/24 07:38:26;;;;;;;32.17;23.45;;;;;;;14.78;53.71;97860.42;2176342;82;20924;-83
2022/04/24 07:41:27;;;;;;;26.42;21.48;;;;;;;14.85;52.65;97862.02;2176391;82;21359;-83
2022/04/24 07:44:27;;;;;;;30.23;21.35;;;;;;;14.87;52.75;97860.67;2175942;82;20905;-84
2022/04/24 07:47:27;;;;;;;27.60;20.40;;;;;;;15.21;52.59;97855.11;2176473;82;20929;-83
2022/04/24 07:50:28;;;;;;;28.42;19.95;;;;;;;15.29;51.30;97850.54;2176679;82;20932;-85
2022/04/24 07:53:28;;;;;;;26.55;20.23;;;;;;;15.39;51.62;97851.64;2176717;82;20889;-84
2022/04/24 07:56:32;;;;;;;24.23;19.73;;;;;;;15.50;50.94;97842.60;2176546;82;20940;-84
2022/04/24 07:59:32;;;;;;;18.67;16.07;;;;;;;15.66;50.73;97839.67;2176842;82;20913;-82
2022/04/24 08:02:32;;;;;;;17.10;13.60;;;;;;;15.76;49.47;97844.67;2176761;82;21036;-83
2022/04/24 08:05:33;;;;;;;16.75;13.83;;;;;;;15.78;48.26;97848.58;2177307;82;20928;-82
2022/04/24 08:08:33;;;;;;;15.38;13.68;;;;;;;15.97;46.28;97841.95;2176765;82;20921;-83
2022/04/24 08:11:34;;;;;;;15.65;13.13;;;;;;;16.00;47.84;97846.27;2176095;82;20988;-83
2022/04/24 08:14:34;;;;;;;14.38;12.78;;;;;;;16.16;48.08;97839.25;2176422;82;20925;-84
2022/04/24 08:17:35;;;;;;;13.98;12.47;;;;;;;16.35;46.44;97836.98;2176202;82;20952;-84
2022/04/24 08:20:35;;;;;;;14.68;12.80;;;;;;;16.42;46.79;97836.36;2166715;82;20960;-82
2022/04/24 08:23:38;;;;;;;13.62;11.88;;;;;;;16.25;44.98;97835.50;2166433;82;20901;-81
2022/04/24 08:26:38;;;;;;;15.20;12.07;;;;;;;16.21;45.20;97830.77;2145703;82;20925;-83
2022/04/24 08:29:38;;;;;;;12.35;11.05;;;;;;;16.26;45.76;97829.34;2166767;82;21336;-82
2022/04/24 08:32:39;;;;;;;12.88;10.18;;;;;;;16.36;43.67;97829.95;2166349;82;21084;-84
2022/04/24 08:35:39;;;;;;;11.78;10.23;;;;;;;16.29;44.92;97833.66;2166277;82;20885;-83
2022/04/24 08:38:40;;;;;;;13.90;12.00;;;;;;;16.40;45.27;97832.91;2166023;82;20965;-84
2022/04/24 08:41:41;;;;;;;12.78;9.40;;;;;;;16.42;42.62;97829.78;2166224;82;20988;-83
2022/04/24 08:44:40;;;;;;;13.68;10.15;;;;;;;16.36;43.45;97825.55;2165812;82;20953;-83
2022/04/24 08:47:41;;;;;;;10.18;9.18;;;;;;;16.44;43.28;97823.56;2166277;82;20913;-83
2022/04/24 08:50:41;;;;;;;13.28;9.23;;;;;;;16.32;43.24;97825.22;2166275;82;20988;-82
2022/04/24 08:53:42;;;;;;;9.43;8.53;;;;;;;16.44;43.64;97824.88;2165935;82;20945;-82
2022/04/24 08:56:42;;;;;;;12.37;8.05;;;;;;;16.56;43.51;97827.20;2166041;82;20889;-82
2022/04/24 08:59:43;;;;;;;8.25;7.45;;;;;;;16.76;43.39;97829.30;2166266;82;20976;-83
2022/04/24 09:02:45;;;;;;;7.00;6.05;;;;;;;17.08;43.45;97825.71;2166118;82;21380;-84
2022/04/24 09:05:45;;;;;;;8.18;5.90;;;;;;;17.56;41.27;97823.80;2143950;82;20925;-83
2022/04/24 09:08:46;;;;;;;6.75;6.15;;;;;;;17.82;40.48;97818.56;2166175;82;20986;-82
2022/04/24 09:11:46;;;;;;;6.92;6.33;;;;;;;18.00;40.54;97829.42;2165974;82;20945;-83
2022/04/24 09:14:47;;;;;;;7.42;6.83;;;;;;;18.06;39.74;97834.48;2166023;82;21261;-83
2022/04/24 09:17:47;;;;;;;12.00;7.28;;;;;;;17.94;40.04;97834.91;2165927;82;20929;-83
2022/04/24 09:20:47;;;;;;;8.30;7.50;;;;;;;17.82;41.11;97830.90;2165904;82;20929;-84
2022/04/24 09:23:48;;;;;;;8.03;7.22;;;;;;;17.47;40.56;97835.97;2165702;82;20913;-83
2022/04/24 09:26:48;;;;;;;9.25;8.35;;;;;;;17.19;42.11;97834.16;2166010;82;20925;-84
2022/04/24 09:29:49;;;;;;;31.12;11.78;;;;;;;16.95;42.47;97828.77;2165966;82;20962;-83
2022/04/24 09:32:49;;;;;;;11.45;10.28;;;;;;;16.69;43.75;97830.84;2165974;82;21414;-84
2022/04/24 09:35:50;;;;;;;12.85;11.50;;;;;;;16.31;44.69;97823.94;2166004;82;20929;-83
2022/04/24 09:38:50;;;;;;;13.03;11.00;;;;;;;15.95;45.45;97827.09;2166391;82;21273;-84
2022/04/24 09:41:50;;;;;;;12.20;10.78;;;;;;;15.81;46.07;97823.50;2165737;82;20925;-81
2022/04/24 09:44:51;;;;;;;22.50;15.23;;;;;;;15.76;46.47;97827.56;2166063;82;20954;-84
2022/04/24 09:47:51;;;;;;;13.03;11.57;;;;;;;15.66;46.59;97823.44;2165950;82;20948;-83
2022/04/24 09:50:53;;;;;;;12.20;11.00;;;;;;;15.65;47.06;97811.19;2165425;82;20925;-83
2022/04/24 09:53:52;;;;;;;14.83;12.07;;;;;;;15.76;47.02;97806.97;2166178;82;20902;-85
2022/04/24 09:56:53;;;;;;;14.10;11.60;;;;;;;15.98;46.88;97800.25;2166028;82;20969;-83
2022/04/24 09:59:55;;;;;;;14.60;11.65;;;;;;;16.25;46.83;97790.74;2145269;82;21364;-83
2022/04/24 10:02:56;;;;;;;13.55;11.25;;;;;;;16.58;45.11;97793.37;2165880;82;21020;-83
2022/04/24 10:06:00;;;;;;;12.58;11.38;;;;;;;16.81;45.58;97786.55;2165685;82;21373;-83
2022/04/24 10:08:59;;;;;;;10.95;9.73;;;;;;;17.17;44.13;97785.88;2145077;82;20889;-83
2022/04/24 10:12:07;;;;;;;10.30;9.30;;;;;;;17.41;44.49;97779.45;2165394;82;20972;-82
2022/04/24 10:15:03;;;;;;;9.25;8.30;;;;;;;17.75;43.95;97764.71;2142057;82;21332;-83
2022/04/24 10:18:04;;;;;;;8.38;7.67;;;;;;;17.91;41.75;97755.81;2165645;82;20916;-84
2022/04/24 10:21:04;;;;;;;8.18;7.47;;;;;;;17.92;41.49;97762.36;2165665;82;20933;-83
2022/04/24 10:24:05;;;;;;;8.90;8.00;;;;;;;17.97;42.16;97770.98;2166165;82;20961;-84
2022/04/24 10:27:11;;;;;;;6.85;6.15;;;;;;;17.92;41.84;97772.05;2166629;82;20906;-82
2022/04/24 10:30:09;;;;;;;8.83;7.37;;;;;;;17.87;40.64;97772.21;2166045;82;20945;-83
2022/04/24 10:33:10;;;;;;;6.40;5.75;;;;;;;17.77;41.61;97772.98;2166285;82;20956;-83
2022/04/24 10:36:12;;;;;;;7.17;6.47;;;;;;;17.65;41.94;97773.36;2166376;82;20925;-82
2022/04/24 10:39:12;;;;;;;7.78;7.05;;;;;;;17.57;42.26;97775.85;2166576;82;20949;-82
2022/04/24 10:42:14;;;;;;;7.65;6.30;;;;;;;17.25;42.17;97771.13;2166380;82;20949;-83
2022/04/24 10:45:20;;;;;;;8.70;7.10;;;;;;;17.08;43.02;97765.53;2166647;82;20994;-82
2022/04/24 10:48:17;;;;;;;7.87;7.13;;;;;;;16.94;43.19;97765.09;2167611;82;20965;-83
2022/04/24 10:51:17;;;;;;;9.53;7.60;;;;;;;16.80;43.75;97762.88;2167035;82;21144;-84
2022/04/24 10:54:18;;;;;;;8.68;7.87;;;;;;;16.87;44.30;97756.05;2167120;82;21281;-84
2022/04/24 10:57:20;;;;;;;11.30;8.55;;;;;;;16.82;44.48;97747.88;2167042;82;20947;-85
2022/04/24 11:00:22;;;;;;;10.10;9.10;;;;;;;16.74;44.93;97740.66;2145028;82;21387;-83
2022/04/24 11:03:23;;;;;;;10.38;8.73;;;;;;;16.69;45.43;97737.30;2166913;82;21011;-84
2022/04/24 11:06:23;;;;;;;12.13;10.80;;;;;;;16.74;45.58;97744.16;2145377;82;20921;-84
2022/04/24 11:09:23;;;;;;;10.70;9.65;;;;;;;16.76;45.93;97746.75;2167357;82;20901;-84
2022/04/24 11:12:23;;;;;;;10.35;9.35;;;;;;;16.86;46.15;97747.73;2167405;82;20877;-84
2022/04/24 11:15:26;;;;;;;11.05;9.95;;;;;;;16.92;46.12;97740.55;2146605;82;20971;-85
2022/04/24 11:18:26;;;;;;;11.18;10.15;;;;;;;16.94;46.10;97739.59;2166937;82;20925;-85
2022/04/24 11:21:27;;;;;;;10.82;9.73;;;;;;;17.02;45.84;97744.63;2166555;82;20972;-84
2022/04/24 11:24:27;;;;;;;11.05;9.73;;;;;;;16.96;46.19;97747.00;2166643;82;20925;-84
2022/04/24 11:27:27;;;;;;;10.88;9.63;;;;;;;16.87;46.53;97752.55;2167028;82;20902;-85
2022/04/24 11:30:37;;;;;;;9.78;8.78;;;;;;;16.93;46.94;97744.91;2166860;82;20961;-83
2022/04/24 11:33:34;;;;;;;10.35;9.35;;;;;;;16.91;46.36;97739.69;2166873;82;20988;-85
2022/04/24 11:36:35;;;;;;;9.85;8.95;;;;;;;16.76;46.70;97734.89;2166930;82;21320;-85
2022/04/24 11:39:35;;;;;;;10.70;9.53;;;;;;;16.67;47.32;97743.07;2166636;82;20921;-83
2022/04/24 11:42:36;;;;;;;9.33;8.43;;;;;;;16.68;47.64;97737.76;2166917;82;21053;-84
2022/04/24 11:52:17;;;;;;;20.60;9.08;;;;;;;16.87;47.66;97720.92;2167010;82;20945;-84
2022/04/24 11:55:18;;;;;;;12.13;10.43;;;;;;;16.92;47.99;97719.47;2144910;82;20924;-83
2022/04/24 11:58:21;;;;;;;11.57;10.48;;;;;;;16.99;48.21;97715.27;2166540;82;20964;-82
2022/04/24 12:01:22;;;;;;;13.55;10.95;;;;;;;17.02;48.19;97705.08;2166710;82;20917;-85
2022/04/24 12:04:22;;;;;;;11.05;9.95;;;;;;;17.16;47.54;97693.18;2166329;82;20992;-83
2022/04/24 12:07:22;;;;;;;11.15;10.15;;;;;;;17.23;47.74;97683.29;2166781;82;21285;-83
2022/04/24 12:10:23;;;;;;;10.32;9.33;;;;;;;17.40;47.86;97673.53;2166774;82;20929;-85
2022/04/24 12:13:23;;;;;;;11.25;10.15;;;;;;;17.40;47.11;97667.80;2167169;82;21285;-84
2022/04/24 12:16:26;;;;;;;11.63;10.50;;;;;;;17.36;47.88;97675.41;2145792;82;20988;-83
2022/04/24 12:19:27;;;;;;;10.95;9.88;;;;;;;17.31;47.88;97673.34;2166940;82;20987;-82
2022/04/24 12:22:27;;;;;;;11.53;10.32;;;;;;;17.26;48.24;97667.82;2166888;82;20972;-84
2022/04/24 12:25:27;;;;;;;14.35;9.88;;;;;;;17.16;47.90;97670.77;2167079;82;21348;-84
2022/04/24 12:28:29;;;;;;;11.28;9.10;;;;;;;16.93;48.91;97671.11;2166747;82;21117;-83
2022/04/24 12:31:28;;;;;;;11.48;9.68;;;;;;;16.79;49.73;97663.64;2166471;82;20937;-85
2022/04/24 12:34:29;;;;;;;12.13;9.95;;;;;;;16.55;50.25;97663.47;2166672;82;20995;-84
2022/04/24 12:37:31;;;;;;;10.48;9.38;;;;;;;16.30;50.85;97669.03;2146567;82;20946;-84
2022/04/24 12:40:32;;;;;;;13.88;9.28;;;;;;;16.06;51.92;97673.70;2167256;82;20962;-84
2022/04/24 12:43:32;;;;;;;9.93;8.93;;;;;;;15.90;53.46;97671.95;2167003;82;20925;-84
2022/04/24 12:46:32;;;;;;;12.47;10.98;;;;;;;15.73;54.61;97684.26;2167328;82;20929;-83
2022/04/24 12:49:33;;;;;;;12.58;11.25;;;;;;;15.55;55.93;97695.20;2166571;82;21332;-83
2022/04/24 12:52:33;;;;;;;11.33;10.10;;;;;;;15.33;58.04;97700.61;2166342;82;20917;-83
2022/04/24 12:55:34;;;;;;;15.63;10.00;;;;;;;15.12;58.77;97701.55;2166429;82;20941;-83
2022/04/24 12:58:34;;;;;;;26.90;23.60;;;;;;;14.90;59.26;97696.40;2166320;82;20932;-82
2022/04/24 13:01:35;;;;;;;23.65;19.12;;;;;;;14.74;59.99;97695.89;2166588;82;20929;-82
2022/04/24 13:04:35;;;;;;;14.28;12.07;;;;;;;14.56;60.60;97694.96;2166674;82;20992;-82
2022/04/24 13:07:36;;;;;;;13.28;11.93;;;;;;;14.41;61.15;97697.89;2166445;82;21276;-82
2022/04/24 13:10:36;;;;;;;12.90;11.60;;;;;;;14.26;61.49;97699.08;2166158;82;20921;-81
2022/04/24 13:13:36;;;;;;;12.33;10.85;;;;;;;14.13;61.65;97698.92;2166144;82;20968;-81
2022/04/24 13:19:55;;;;;;;10.50;9.50;;;;;;;13.85;63.84;97688.95;2165769;82;20964;-81
2022/04/24 13:22:56;;;;;;;11.73;8.93;;;;;;;13.66;63.14;97684.50;2165974;82;20913;-82
2022/04/24 13:25:56;;;;;;;10.95;9.83;;;;;;;13.57;63.80;97685.98;2166387;82;20957;-83
2022/04/24 13:28:56;;;;;;;12.55;11.38;;;;;;;13.49;64.02;97676.09;2166663;82;20933;-84
2022/04/24 13:31:59;;;;;;;11.18;9.98;;;;;;;13.39;63.46;97658.80;2166632;82;21352;-83
2022/04/24 13:34:59;;;;;;;11.00;10.00;;;;;;;13.32;64.25;97646.70;2144163;82;21004;-83
2022/04/24 13:38:17;;;;;;;10.93;9.05;;;;;;;13.32;63.65;97622.66;2166392;82;20940;-82
2022/04/24 13:41:18;;;;;;;11.78;10.13;;;;;;;13.49;63.89;97625.41;2166741;82;20964;-84
2022/04/24 13:44:18;;;;;;;10.00;9.00;;;;;;;13.95;63.51;97625.39;2166755;82;21324;-83
2022/04/24 13:47:20;;;;;;;9.83;8.93;;;;;;;14.37;62.72;97640.66;2167032;82;20933;-82
2022/04/24 13:50:19;;;;;;;11.18;9.98;;;;;;;14.71;61.54;97635.97;2166840;82;20968;-82
2022/04/24 13:53:20;;;;;;;13.18;10.45;;;;;;;14.90;60.11;97628.95;2166534;82;21012;-81
2022/04/24 13:56:21;;;;;;;9.63;8.63;;;;;;;14.87;59.73;97623.77;2167112;82;20893;-84
2022/04/24 13:59:21;;;;;;;11.80;10.05;;;;;;;14.97;59.57;97609.95;2166689;82;20917;-84
2022/04/24 14:02:22;;;;;;;11.40;10.15;;;;;;;14.90;59.56;97597.88;2166105;82;21036;-83
2022/04/24 14:05:24;;;;;;;10.72;9.63;;;;;;;14.85;59.21;97600.61;2166793;82;20980;-83
2022/04/24 14:08:26;;;;;;;10.93;9.70;;;;;;;14.75;59.36;97608.76;2166286;82;20916;-83